createdAt,value
2022-09-14T00:01:32.211Z,100.00
2022-09-14T00:04:12.335Z,100.00
2022-09-14T00:06:51.379Z,100.00
2022-09-14T00:14:46.077Z,100.00
2022-09-14T00:17:18.256Z,100.00
2022-09-14T00:19:53.734Z,100.00
2022-09-14T00:22:21.565Z,100.00
2022-09-14T00:24:58.891Z,100.00
2022-09-14T00:27:27.573Z,100.00
2022-09-14T00:29:56.512Z,100.00
2022-09-14T00:32:24.626Z,100.00
2022-09-14T00:34:53.585Z,100.00
2022-09-14T00:37:26.642Z,100.00
2022-09-14T00:39:58.183Z,100.00
2022-09-14T00:42:29.673Z,100.00
2022-09-14T00:45:14.173Z,100.00
2022-09-14T00:47:56.130Z,100.00
2022-09-14T00:50:24.556Z,100.00
2022-09-14T00:52:58.339Z,100.00
2022-09-14T00:55:28.492Z,100.00
2022-09-14T00:57:58.201Z,100.00
2022-09-14T01:00:29.979Z,100.00
2022-09-14T01:03:06.958Z,100.00
2022-09-14T01:05:41.990Z,100.00
2022-09-14T01:08:42.204Z,100.00
2022-09-14T01:11:59.417Z,100.00
2022-09-14T01:15:07.097Z,100.00
2022-09-14T01:18:03.985Z,100.00
2022-09-14T01:20:47.676Z,100.00
2022-09-14T01:23:51.915Z,100.00
2022-09-14T01:26:30.014Z,100.00
2022-09-14T01:29:18.919Z,100.00
2022-09-14T01:32:19.464Z,100.00
2022-09-14T01:35:12.086Z,100.00
2022-09-14T01:37:54.000Z,100.00
2022-09-14T01:40:38.977Z,100.00
2022-09-14T01:43:38.233Z,100.00
2022-09-14T01:46:13.644Z,100.00
2022-09-14T01:49:36.244Z,100.00
2022-09-14T01:58:54.727Z,100.00
2022-09-14T02:01:35.770Z,100.00
2022-09-14T02:04:11.075Z,100.00
2022-09-14T02:06:46.822Z,100.00
2022-09-14T02:09:22.248Z,100.00
2022-09-14T02:11:54.317Z,100.00
2022-09-14T02:14:25.497Z,100.00
2022-09-14T02:16:56.828Z,100.00
2022-09-14T02:19:29.983Z,100.00
2022-09-14T02:22:13.042Z,100.00
2022-09-14T02:24:43.997Z,100.00
2022-09-14T02:27:11.826Z,100.00
2022-09-14T02:29:42.950Z,100.00
2022-09-14T02:33:02.156Z,100.00
2022-09-14T02:35:50.378Z,100.00
2022-09-14T02:38:43.456Z,100.00
2022-09-14T02:41:19.163Z,100.00
2022-09-14T02:44:09.971Z,100.00
2022-09-14T02:47:19.820Z,100.00
2022-09-14T02:50:19.015Z,100.00
2022-09-14T02:53:18.741Z,100.00
2022-09-14T02:55:59.677Z,100.00
2022-09-14T02:58:48.310Z,100.00
2022-09-14T03:01:24.057Z,100.00
2022-09-14T03:03:55.639Z,100.00
2022-09-14T03:06:27.064Z,100.00
2022-09-14T03:08:56.238Z,100.00
2022-09-14T03:11:25.426Z,100.00
2022-09-14T03:13:57.273Z,100.00
2022-09-14T03:16:27.530Z,100.00
2022-09-14T03:18:59.301Z,100.00
2022-09-14T03:21:30.351Z,100.00
2022-09-14T03:24:00.130Z,100.00
2022-09-14T03:26:39.400Z,100.00
2022-09-14T03:29:08.163Z,100.00
2022-09-14T03:31:37.567Z,100.00
2022-09-14T03:34:06.765Z,100.00
2022-09-14T03:36:38.225Z,100.00
2022-09-14T03:39:07.510Z,100.00
2022-09-14T03:41:39.366Z,100.00
2022-09-14T03:44:08.462Z,100.00
2022-09-14T03:46:38.512Z,100.00
2022-09-14T03:49:09.913Z,100.00
2022-09-14T03:51:40.060Z,100.00
2022-09-14T03:54:19.889Z,100.00
2022-09-14T03:56:57.834Z,100.00
2022-09-14T03:59:27.390Z,100.00
2022-09-14T04:02:00.247Z,100.00
2022-09-14T04:04:33.924Z,100.00
2022-09-14T04:07:04.321Z,100.00
2022-09-14T04:09:34.997Z,100.00
2022-09-14T04:12:03.497Z,100.00
2022-09-14T04:14:37.827Z,100.00
2022-09-14T04:17:09.527Z,100.00
2022-09-14T04:19:40.357Z,100.00
2022-09-14T04:22:13.005Z,100.00
2022-09-14T04:24:42.758Z,100.00
2022-09-14T04:27:27.033Z,100.00
2022-09-14T04:29:57.224Z,100.00
2022-09-14T04:32:34.079Z,100.00
2022-09-14T04:35:04.030Z,100.00
2022-09-14T04:37:34.890Z,100.00
2022-09-14T04:40:04.136Z,100.00
2022-09-14T04:42:41.058Z,100.00
2022-09-14T04:45:09.912Z,100.00
2022-09-14T04:47:51.650Z,100.00
2022-09-14T04:50:20.797Z,100.00
2022-09-14T04:52:49.896Z,100.00
2022-09-14T04:55:35.942Z,100.00
2022-09-14T04:58:05.360Z,100.00
2022-09-14T05:00:37.771Z,100.00
2022-09-14T05:03:10.871Z,100.00
2022-09-14T05:05:49.940Z,100.00
2022-09-14T05:08:19.672Z,100.00
2022-09-14T05:10:47.368Z,100.00
2022-09-14T05:13:19.139Z,100.00
2022-09-14T05:15:47.602Z,100.00
2022-09-14T05:18:17.192Z,100.00
2022-09-14T05:20:49.102Z,100.00
2022-09-14T05:23:20.473Z,100.00
2022-09-14T05:25:55.902Z,100.00
2022-09-14T05:28:36.087Z,100.00
2022-09-14T05:31:15.461Z,100.00
2022-09-14T05:33:45.034Z,100.00
2022-09-14T05:36:14.743Z,100.00
2022-09-14T05:38:45.937Z,100.00
2022-09-14T05:41:18.067Z,100.00
2022-09-14T05:43:46.519Z,100.00
2022-09-14T05:46:17.789Z,100.00
2022-09-14T05:48:47.824Z,100.00
2022-09-14T05:51:34.036Z,100.00
2022-09-14T05:54:10.995Z,100.00
2022-09-14T05:56:45.291Z,100.00
2022-09-14T05:59:19.101Z,100.00
2022-09-14T06:01:47.672Z,100.00
2022-09-14T06:04:18.265Z,100.00
2022-09-14T06:07:17.331Z,100.00
2022-09-14T06:09:47.600Z,100.00
2022-09-14T06:12:17.776Z,100.00
2022-09-14T06:14:55.444Z,100.00
2022-09-14T06:17:31.926Z,100.00
2022-09-14T06:20:10.527Z,100.00
2022-09-14T06:22:38.580Z,100.00
2022-09-14T06:25:07.882Z,100.00
2022-09-14T06:27:37.219Z,100.00
2022-09-14T06:30:08.037Z,100.00
2022-09-14T06:32:37.049Z,100.00
2022-09-14T06:35:10.363Z,100.00
2022-09-14T06:37:44.047Z,100.00
2022-09-14T06:40:15.402Z,100.00
2022-09-14T06:42:45.611Z,100.00
2022-09-14T06:45:16.904Z,100.00
2022-09-14T06:47:54.540Z,99.61
2022-09-14T06:50:24.848Z,99.58
2022-09-14T06:53:04.529Z,100.00
2022-09-14T06:55:33.615Z,100.00
2022-09-14T06:58:11.593Z,99.29
2022-09-14T07:00:44.432Z,99.18
2022-09-14T07:03:16.700Z,99.36
2022-09-14T07:05:45.423Z,99.86
2022-09-14T07:08:20.520Z,98.12
2022-09-14T07:11:01.793Z,97.75
2022-09-14T07:13:34.841Z,97.44
2022-09-14T07:16:04.227Z,95.74
2022-09-14T07:18:34.886Z,95.37
2022-09-14T07:21:17.169Z,94.47
2022-09-14T07:23:51.188Z,94.06
2022-09-14T07:26:36.545Z,94.27
2022-09-14T07:29:06.994Z,94.42
2022-09-14T07:31:52.174Z,94.62
2022-09-14T07:34:21.040Z,93.33
2022-09-14T07:36:59.058Z,93.44
2022-09-14T07:39:28.542Z,93.97
2022-09-14T07:41:56.538Z,94.19
2022-09-14T07:44:29.550Z,93.80
2022-09-14T07:46:58.409Z,92.82
2022-09-14T07:49:27.880Z,93.52
2022-09-14T07:51:56.908Z,93.18
2022-09-14T07:54:28.093Z,92.88
2022-09-14T07:56:59.446Z,93.68
2022-09-14T07:59:35.995Z,93.89
2022-09-14T08:02:09.338Z,92.00
2022-09-14T08:04:39.735Z,89.75
2022-09-14T08:07:09.166Z,90.31
2022-09-14T08:09:47.852Z,89.28
2022-09-14T08:12:19.728Z,90.13
2022-09-14T08:14:56.586Z,90.88
2022-09-14T08:20:16.295Z,91.00
2022-09-14T08:22:46.924Z,90.65
2022-09-14T08:25:16.574Z,90.47
2022-09-14T08:27:47.861Z,90.05
2022-09-14T08:30:17.181Z,91.53
2022-09-14T08:32:52.666Z,91.46
2022-09-14T08:35:53.646Z,89.83
2022-09-14T08:38:23.314Z,90.56
2022-09-14T08:40:53.792Z,91.35
2022-09-14T08:43:28.141Z,93.73
2022-09-14T08:46:04.211Z,91.25
2022-09-14T08:48:42.638Z,92.79
2022-09-14T08:51:13.889Z,92.40
2022-09-14T08:53:48.825Z,94.78
2022-09-14T08:56:30.125Z,94.46
2022-09-14T08:59:41.775Z,93.70
2022-09-14T09:02:48.994Z,93.59
2022-09-14T09:05:42.462Z,95.71
2022-09-14T09:08:50.712Z,95.19
2022-09-14T09:11:23.695Z,95.07
2022-09-14T09:13:54.805Z,94.33
2022-09-14T09:16:26.354Z,93.83
2022-09-14T09:19:06.190Z,95.61
2022-09-14T09:21:42.882Z,92.60
2022-09-14T09:24:29.424Z,92.83
2022-09-14T09:26:59.433Z,90.85
2022-09-14T09:29:29.367Z,90.05
2022-09-14T09:32:00.227Z,89.46
2022-09-14T09:34:32.406Z,91.08
2022-09-14T09:37:02.060Z,88.73
2022-09-14T09:39:43.046Z,89.19
2022-09-14T09:42:29.196Z,87.57
2022-09-14T09:45:04.567Z,89.47
2022-09-14T09:47:42.363Z,89.28
2022-09-14T09:50:25.815Z,88.97
2022-09-14T09:53:03.335Z,90.02
2022-09-14T09:55:40.517Z,88.88
2022-09-14T09:58:40.069Z,87.63
2022-09-14T10:01:31.912Z,87.90
2022-09-14T10:04:08.545Z,87.74
2022-09-14T10:16:18.073Z,91.65
2022-09-14T10:18:51.668Z,90.15
2022-09-14T10:21:26.605Z,89.80
2022-09-14T10:24:15.576Z,88.74
2022-09-14T10:26:48.374Z,86.96
2022-09-14T10:29:40.385Z,87.87
2022-09-14T10:32:32.900Z,87.33
2022-09-14T10:35:02.202Z,86.29
2022-09-14T10:38:09.716Z,87.56
2022-09-14T10:40:55.332Z,85.03
2022-09-14T10:44:05.964Z,85.47
2022-09-14T10:46:54.821Z,85.23
2022-09-14T10:49:40.052Z,85.79
2022-09-14T10:52:28.953Z,86.77
2022-09-14T10:55:20.581Z,87.46
2022-09-14T10:58:06.297Z,86.27
2022-09-14T11:00:47.399Z,84.31
2022-09-14T11:03:46.316Z,84.07
2022-09-14T11:06:54.542Z,82.62
2022-09-14T11:09:38.582Z,83.51
2022-09-14T11:12:54.644Z,81.19
2022-09-14T11:15:50.048Z,79.90
2022-09-14T11:18:50.860Z,75.87
2022-09-14T11:21:44.732Z,76.48
2022-09-14T11:24:31.362Z,76.66
2022-09-14T11:27:09.004Z,77.63
2022-09-14T11:29:46.881Z,77.09
2022-09-14T11:32:45.254Z,76.42
2022-09-14T11:35:51.475Z,76.34
2022-09-14T11:38:38.820Z,74.16
2022-09-14T11:41:22.171Z,73.62
2022-09-14T11:44:55.493Z,74.01
2022-09-14T11:47:25.285Z,72.75
2022-09-14T11:50:29.502Z,71.79
2022-09-14T11:53:15.832Z,70.37
2022-09-14T11:55:50.957Z,69.38
2022-09-14T11:58:24.040Z,68.57
2022-09-14T12:01:06.158Z,67.00
2022-09-14T12:04:14.909Z,68.40
2022-09-14T12:06:52.046Z,70.23
2022-09-14T12:09:32.872Z,71.73
2022-09-14T12:12:26.750Z,70.84
2022-09-14T12:15:04.427Z,69.75
2022-09-14T12:17:39.831Z,68.89
2022-09-14T12:20:36.867Z,68.52
2022-09-14T12:23:08.275Z,67.67
2022-09-14T12:25:41.870Z,69.17
2022-09-14T12:28:48.673Z,64.14
2022-09-14T12:32:02.834Z,64.85
2022-09-14T12:34:33.946Z,67.10
2022-09-14T12:37:34.267Z,66.15
2022-09-14T12:40:23.294Z,64.21
2022-09-14T12:42:55.613Z,63.28
2022-09-14T12:45:55.194Z,62.06
2022-09-14T12:48:53.707Z,62.71
2022-09-14T12:51:33.006Z,60.31
2022-09-14T12:54:34.203Z,59.21
2022-09-14T12:57:34.719Z,58.37
2022-09-14T13:00:08.286Z,61.15
2022-09-14T13:03:18.434Z,59.03
2022-09-14T13:05:48.535Z,56.52
2022-09-14T13:08:26.082Z,54.85
2022-09-14T13:10:55.152Z,55.76
2022-09-14T13:13:29.626Z,58.60
2022-09-14T13:16:07.934Z,59.77
2022-09-14T13:18:43.187Z,59.21
2022-09-14T13:21:24.274Z,59.27
2022-09-14T13:23:53.747Z,58.11
2022-09-14T13:26:37.825Z,58.59
2022-09-14T13:29:08.639Z,57.16
2022-09-14T13:31:39.796Z,58.58
2022-09-14T13:34:13.500Z,60.26
2022-09-14T13:36:59.376Z,59.49
2022-09-14T13:39:44.520Z,60.54
2022-09-14T13:42:29.303Z,61.45
2022-09-14T13:45:01.983Z,61.22
2022-09-14T13:47:54.642Z,61.97
2022-09-14T13:50:35.317Z,62.20
2022-09-14T13:53:04.439Z,60.17
2022-09-14T13:55:36.086Z,61.24
2022-09-14T13:58:10.149Z,60.94
2022-09-14T14:01:13.273Z,61.30
2022-09-14T14:03:52.902Z,57.64
2022-09-14T14:06:25.260Z,55.75
2022-09-14T14:09:03.530Z,54.68
2022-09-14T14:11:41.309Z,54.13
2022-09-14T14:14:32.799Z,53.28
2022-09-14T14:17:26.422Z,54.33
2022-09-14T14:20:24.339Z,55.41
2022-09-14T14:23:21.793Z,56.69
2022-09-14T14:25:55.789Z,57.71
2022-09-14T14:28:30.972Z,56.84
2022-09-14T14:31:08.736Z,57.76
2022-09-14T14:33:48.119Z,56.50
2022-09-14T14:36:20.469Z,57.13
2022-09-14T14:38:51.478Z,57.76
2022-09-14T14:41:23.690Z,57.02
2022-09-14T14:43:54.952Z,58.58
2022-09-14T14:46:32.454Z,59.09
2022-09-14T14:49:02.236Z,59.11
2022-09-14T14:51:34.152Z,58.84
2022-09-14T14:54:03.308Z,60.06
2022-09-14T14:56:31.075Z,60.11
2022-09-14T14:59:28.056Z,59.62
2022-09-14T15:01:58.561Z,60.74
2022-09-14T15:04:27.192Z,60.63
2022-09-14T15:07:06.884Z,60.62
2022-09-14T15:09:37.450Z,60.77
2022-09-14T15:12:09.697Z,62.16
2022-09-14T15:14:42.105Z,62.12
2022-09-14T15:17:16.877Z,61.49
2022-09-14T15:19:49.325Z,61.38
2022-09-14T15:25:01.428Z,62.81
2022-09-14T15:27:36.282Z,63.28
2022-09-14T15:30:07.617Z,63.44
2022-09-14T15:32:50.841Z,63.76
2022-09-14T15:35:23.624Z,63.56
2022-09-14T15:37:53.600Z,63.58
2022-09-14T15:40:22.746Z,64.45
2022-09-14T15:42:51.289Z,64.68
2022-09-14T15:45:20.311Z,65.02
2022-09-14T15:47:52.371Z,64.26
2022-09-14T15:50:24.657Z,64.29
2022-09-14T15:52:58.056Z,65.25
2022-09-14T15:55:34.689Z,65.35
2022-09-14T15:58:23.507Z,65.24
2022-09-14T16:00:53.994Z,65.13
2022-09-14T16:03:27.692Z,66.52
2022-09-14T16:06:03.218Z,66.86
2022-09-14T16:08:34.552Z,67.44
2022-09-14T16:11:14.171Z,67.48
2022-09-14T16:13:44.074Z,68.67
2022-09-14T16:16:16.880Z,67.83
2022-09-14T16:18:48.434Z,68.76
2022-09-14T16:21:21.264Z,68.46
2022-09-14T16:23:58.727Z,69.43
2022-09-14T16:26:43.461Z,69.47
2022-09-14T16:31:57.245Z,69.62
2022-09-14T16:34:29.657Z,70.41
2022-09-14T16:37:03.366Z,69.71
2022-09-14T16:39:38.137Z,70.19
2022-09-14T16:42:09.410Z,71.12
2022-09-14T16:44:38.283Z,71.46
2022-09-14T16:47:08.045Z,70.50
2022-09-14T16:49:45.171Z,71.34
2022-09-14T16:52:12.965Z,71.20
2022-09-14T16:54:44.252Z,71.97
2022-09-14T16:57:15.314Z,71.62
2022-09-14T16:59:43.604Z,71.44
2022-09-14T17:02:14.515Z,72.34
2022-09-14T17:04:43.670Z,72.22
2022-09-14T17:07:11.373Z,72.31
2022-09-14T17:09:42.473Z,72.81
2022-09-14T17:12:11.760Z,72.53
2022-09-14T17:14:47.199Z,72.89
2022-09-14T17:17:19.348Z,72.90
2022-09-14T17:19:53.634Z,73.53
2022-09-14T17:22:21.194Z,74.09
2022-09-14T17:24:52.752Z,73.86
2022-09-14T17:27:30.649Z,74.47
2022-09-14T17:30:02.204Z,75.39
2022-09-14T17:32:30.262Z,75.34
2022-09-14T17:35:02.566Z,76.04
2022-09-14T17:37:33.655Z,76.67
2022-09-14T17:40:03.451Z,76.84
2022-09-14T17:42:34.067Z,77.64
2022-09-14T17:45:04.767Z,78.51
2022-09-14T17:47:36.091Z,78.11
2022-09-14T17:50:04.513Z,78.46
2022-09-14T17:52:44.055Z,78.99
2022-09-14T17:55:15.180Z,78.00
2022-09-14T17:57:52.700Z,77.35
2022-09-14T18:00:23.992Z,78.43
2022-09-14T18:02:54.860Z,78.35
2022-09-14T18:05:24.085Z,78.95
2022-09-14T18:08:01.841Z,78.03
2022-09-14T18:10:32.181Z,77.96
2022-09-14T18:13:03.181Z,79.34
2022-09-14T18:15:39.768Z,80.01
2022-09-14T18:18:11.456Z,80.76
2022-09-14T18:20:41.287Z,81.43
2022-09-14T18:23:10.712Z,81.95
2022-09-14T18:25:44.947Z,82.88
2022-09-14T18:28:14.204Z,83.24
2022-09-14T18:30:46.563Z,84.21
2022-09-14T18:33:24.163Z,84.27
2022-09-14T18:35:57.377Z,84.88
2022-09-14T18:38:29.904Z,85.95
2022-09-14T18:41:07.276Z,86.03
2022-09-14T18:43:36.761Z,87.06
2022-09-14T18:46:08.812Z,87.22
2022-09-14T18:48:40.840Z,87.52
2022-09-14T18:51:11.771Z,88.86
2022-09-14T18:53:40.754Z,88.56
2022-09-14T18:56:25.671Z,89.16
2022-09-14T18:59:05.725Z,88.72
2022-09-14T19:01:43.964Z,88.76
2022-09-14T19:04:25.040Z,88.96
2022-09-14T19:07:03.004Z,89.08
2022-09-14T19:09:36.530Z,88.34
2022-09-14T19:12:08.919Z,88.30
2022-09-14T19:14:39.862Z,88.85
2022-09-14T19:17:10.106Z,88.15
2022-09-14T19:19:52.928Z,87.97
2022-09-14T19:22:24.104Z,87.85
2022-09-14T19:25:04.464Z,87.70
2022-09-14T19:27:36.516Z,87.61
2022-09-14T19:30:05.589Z,88.44
2022-09-14T19:32:36.920Z,89.11
2022-09-14T19:35:07.099Z,87.92
2022-09-14T19:37:36.641Z,89.05
2022-09-14T19:40:06.231Z,89.35
2022-09-14T19:42:36.656Z,90.25
2022-09-14T19:45:08.282Z,91.02
2022-09-14T19:47:38.746Z,92.43
2022-09-14T19:50:16.775Z,92.20
2022-09-14T19:52:48.327Z,94.15
2022-09-14T19:55:22.363Z,95.90
2022-09-14T19:57:50.143Z,98.95
2022-09-14T20:00:19.866Z,100.00
2022-09-14T20:02:48.315Z,100.00
2022-09-14T20:05:20.260Z,100.00
2022-09-14T20:07:53.040Z,100.00
2022-09-14T20:10:25.083Z,100.00
2022-09-14T20:12:54.995Z,100.00
2022-09-14T20:15:24.226Z,100.00
2022-09-14T20:17:56.400Z,100.00
2022-09-14T20:20:25.128Z,100.00
2022-09-14T20:22:55.521Z,100.00
2022-09-14T20:25:25.063Z,100.00
2022-09-14T20:27:58.148Z,100.00
2022-09-14T20:30:38.220Z,100.00
2022-09-14T20:33:32.108Z,100.00
2022-09-14T20:36:10.826Z,100.00
2022-09-14T20:38:50.223Z,100.00
2022-09-14T20:41:21.799Z,100.00
2022-09-14T20:43:54.946Z,100.00
2022-09-14T20:46:35.981Z,100.00
2022-09-14T20:49:08.865Z,100.00
2022-09-14T20:51:37.855Z,100.00
2022-09-14T20:54:08.143Z,100.00
2022-09-14T20:56:36.860Z,100.00
2022-09-14T20:59:10.244Z,100.00
2022-09-14T21:01:39.701Z,100.00
2022-09-14T21:04:20.575Z,100.00
2022-09-14T21:06:52.762Z,100.00
2022-09-14T21:09:25.394Z,100.00
2022-09-14T21:11:54.372Z,100.00
2022-09-14T21:14:24.588Z,100.00
2022-09-14T21:17:04.667Z,100.00
2022-09-14T21:19:33.602Z,100.00
2022-09-14T21:22:04.690Z,100.00
2022-09-14T21:24:36.486Z,100.00
2022-09-14T21:27:06.252Z,100.00
2022-09-14T21:29:44.691Z,100.00
2022-09-14T21:32:17.119Z,100.00
2022-09-14T21:34:46.423Z,100.00
2022-09-14T21:37:15.621Z,100.00
2022-09-14T21:39:55.717Z,100.00
2022-09-14T21:42:24.467Z,100.00
2022-09-14T21:45:02.973Z,100.00
2022-09-14T21:47:31.145Z,100.00
2022-09-14T21:50:00.359Z,100.00
2022-09-14T21:52:38.012Z,100.00
2022-09-14T21:55:07.412Z,100.00
2022-09-14T21:57:39.007Z,100.00
2022-09-14T22:00:13.086Z,100.00
2022-09-14T22:02:45.507Z,100.00
2022-09-14T22:05:14.160Z,100.00
2022-09-14T22:07:46.661Z,100.00
2022-09-14T22:10:22.109Z,100.00
2022-09-14T22:12:51.768Z,100.00
2022-09-14T22:15:32.061Z,100.00
2022-09-14T22:18:07.629Z,100.00
2022-09-14T22:20:37.572Z,100.00
2022-09-14T22:23:09.173Z,100.00
2022-09-14T22:25:50.784Z,100.00
2022-09-14T22:28:30.138Z,100.00
2022-09-14T22:31:14.339Z,100.00
2022-09-14T22:33:53.036Z,100.00
2022-09-14T22:36:26.850Z,100.00
2022-09-14T22:39:00.493Z,100.00
2022-09-14T22:41:30.173Z,100.00
2022-09-14T22:44:04.312Z,100.00
2022-09-14T22:46:35.777Z,100.00
2022-09-14T22:55:17.518Z,100.00
2022-09-14T22:57:45.723Z,100.00
2022-09-14T23:00:21.315Z,100.00
2022-09-14T23:02:51.817Z,100.00
2022-09-14T23:05:23.309Z,100.00
2022-09-14T23:07:55.532Z,100.00
2022-09-14T23:13:20.689Z,100.00
2022-09-14T23:15:54.659Z,100.00
2022-09-14T23:18:24.424Z,100.00
2022-09-14T23:20:55.619Z,100.00
2022-09-14T23:23:27.193Z,100.00
2022-09-14T23:26:06.442Z,100.00
2022-09-14T23:28:35.717Z,100.00
2022-09-14T23:31:08.216Z,100.00
2022-09-14T23:33:39.596Z,100.00
2022-09-14T23:36:14.943Z,100.00
2022-09-14T23:38:43.564Z,100.00
2022-09-14T23:41:12.069Z,100.00
2022-09-14T23:43:39.718Z,100.00
2022-09-14T23:46:08.741Z,100.00
2022-09-14T23:48:40.159Z,100.00
2022-09-14T23:51:13.440Z,100.00
2022-09-14T23:53:51.724Z,100.00
2022-09-14T23:56:21.508Z,100.00
2022-09-14T23:58:50.903Z,100.00
